Time;durP1;ratioP1;P1;durP2;ratioP2;P2;SDS_P1;SDS_P2;PMS_P1;PMS_P2;Temp;Humidity;BMP_temperature;BMP_pressure;BME280_temperature;BME280_humidity;BME280_pressure;Samples;Min_cycle;Max_cycle;Signal;HPM_P1;HPM_P2
2022/02/03 00:00:22;;;;;;;7.20;5.80;;;;;;;19.13;52.02;102044.81;5012907;28;20026;-71
2022/02/03 00:03:17;;;;;;;8.27;5.15;;;;;;;19.13;51.98;102043.97;5012415;28;20117;-72
2022/02/03 00:21:59;;;;;;;7.07;5.40;;;;;;;19.00;52.06;102025.44;5012200;28;20048;-72
2022/02/03 00:22:50;;;;;;;7.57;5.72;;;;;;;18.96;52.18;102026.59;5017791;28;20052;-72
2022/02/03 00:25:28;;;;;;;7.28;5.60;;;;;;;18.91;52.12;102013.69;5013067;28;20443;-72
2022/02/03 00:28:14;;;;;;;7.50;5.55;;;;;;;18.93;52.10;102018.88;5014503;28;20536;-72
2022/02/03 00:33:15;;;;;;;9.77;5.82;;;;;;;18.88;52.14;102013.88;5013276;28;20072;-72
2022/02/03 00:38:22;;;;;;;7.07;5.30;;;;;;;18.86;52.46;102007.88;5011941;28;20030;-72
2022/02/03 00:49:04;;;;;;;8.15;5.78;;;;;;;18.79;52.63;101993.34;5012769;28;20040;-72
2022/02/03 00:51:30;;;;;;;8.30;5.50;;;;;;;18.78;52.17;101997.78;5011562;28;20026;-72
2022/02/03 00:53:57;;;;;;;7.38;5.13;;;;;;;18.76;52.08;101986.47;5012535;28;20057;-72
2022/02/03 00:56:35;;;;;;;8.23;5.85;;;;;;;18.73;52.18;101986.66;5012003;28;20041;-72
2022/02/03 00:59:10;;;;;;;7.82;5.55;;;;;;;18.74;52.56;101983.09;5012055;28;20056;-72
2022/02/03 01:01:48;;;;;;;8.10;5.68;;;;;;;18.72;52.57;101987.59;5012394;28;20401;-72
2022/02/03 01:04:14;;;;;;;7.55;5.53;;;;;;;18.72;52.38;101977.03;5012233;28;20040;-72
2022/02/03 01:06:49;;;;;;;8.52;5.65;;;;;;;18.70;52.42;101978.13;5011559;28;20030;-72
2022/02/03 01:09:19;;;;;;;8.63;5.40;;;;;;;18.68;52.31;101989.63;5012513;28;20379;-71
2022/02/03 01:11:48;;;;;;;9.35;5.95;;;;;;;18.65;52.45;101983.69;5011685;28;20037;-72
2022/02/03 01:14:46;;;;;;;7.03;5.78;;;;;;;18.66;52.38;101985.41;5011791;28;20426;-72
2022/02/03 01:17:28;;;;;;;7.03;5.57;;;;;;;18.65;52.56;101988.97;5012014;28;20065;-72
2022/02/03 01:44:58;;;;;;;9.02;5.97;;;;;;;18.53;52.18;101968.66;5015405;28;20037;-72
2022/02/03 01:52:38;;;;;;;7.60;6.05;;;;;;;18.49;52.19;101971.47;5015097;28;20133;-71
2022/02/03 01:55:09;;;;;;;8.23;5.63;;;;;;;18.47;52.22;101968.09;5014381;28;20076;-71
2022/02/03 01:57:57;;;;;;;8.88;5.55;;;;;;;18.48;52.07;101968.94;5015047;28;20022;-71
2022/02/03 02:00:24;;;;;;;8.20;6.00;;;;;;;18.44;52.46;101964.84;5014991;28;20022;-71
2022/02/03 02:03:11;;;;;;;7.13;5.32;;;;;;;18.44;52.17;101957.75;5014345;28;20504;-71
2022/02/03 02:05:59;;;;;;;8.00;5.43;;;;;;;18.42;52.27;101957.00;5014977;28;20065;-71
2022/02/03 02:08:30;;;;;;;9.43;5.57;;;;;;;18.41;52.20;101952.66;5013752;28;20041;-71
2022/02/03 02:11:36;;;;;;;7.47;5.07;;;;;;;18.42;52.12;101956.13;5015045;28;20030;-71
2022/02/03 02:19:22;;;;;;;7.45;4.95;;;;;;;18.38;52.19;101950.22;5014931;28;20393;-71
2022/02/03 02:44:15;;;;;;;7.65;4.43;;;;;;;18.27;52.00;101915.78;5013772;28;20438;-71
2022/02/03 02:46:49;;;;;;;7.55;3.90;;;;;;;18.28;51.85;101910.41;5014433;28;20026;-71
2022/02/03 02:49:20;;;;;;;;;;;;;;;18.25;51.86;101913.22;5014546;28;20034;-71
2022/02/03 02:51:53;;;;;;;5.03;3.53;;;;;;;18.27;51.85;101908.69;5013520;28;20003;-71
2022/02/03 02:54:43;;;;;;;5.35;3.60;;;;;;;18.26;52.21;101906.16;5014022;28;20033;-71
2022/02/03 02:57:37;;;;;;;5.00;3.22;;;;;;;18.23;52.06;101907.22;5012975;28;20473;-71
2022/02/03 03:00:33;;;;;;;6.85;3.97;;;;;;;18.25;51.89;101909.75;5013816;28;20026;-72
2022/02/03 03:03:43;;;;;;;5.72;3.40;;;;;;;18.24;51.84;101908.06;5013790;28;20041;-71
2022/02/03 03:29:01;;;;;;;7.03;3.00;;;;;;;18.22;51.89;101894.13;5012994;28;20100;-71
2022/02/03 03:34:45;;;;;;;4.57;2.88;;;;;;;18.14;51.94;101847.13;5012365;28;20509;-71
2022/02/03 03:37:16;;;;;;;5.03;2.80;;;;;;;18.12;51.67;101836.66;5013449;28;20104;-72
2022/02/03 03:39:48;;;;;;;4.97;2.63;;;;;;;18.12;51.93;101835.84;5012231;28;20048;-71
2022/02/03 03:42:14;;;;;;;7.35;2.47;;;;;;;18.10;51.62;101830.66;5012463;28;20042;-71
2022/02/03 03:44:43;;;;;;;6.30;2.80;;;;;;;18.10;51.71;101827.16;5013041;28;20512;-71
2022/02/03 03:47:13;;;;;;;6.05;2.80;;;;;;;18.09;51.62;101823.69;5012236;28;20425;-71
2022/02/03 03:49:45;;;;;;;6.75;2.78;;;;;;;18.09;51.66;101823.69;5013732;28;20042;-71
2022/02/03 03:52:20;;;;;;;6.28;2.80;;;;;;;18.09;51.71;101826.31;5013124;28;20450;-71
2022/02/03 03:55:02;;;;;;;5.55;2.70;;;;;;;18.09;51.93;101826.31;5012777;28;20440;-71
2022/02/03 04:32:44;;;;;;;;;;;;;;;18.16;51.72;101810.94;5012849;28;20037;-73
2022/02/03 04:36:26;;;;;;;5.70;1.70;;;;;;;18.18;51.32;101801.09;5012069;28;19924;-71
2022/02/03 04:38:34;;;;;;;4.43;1.50;;;;;;;18.19;51.50;101802.81;5011952;28;20033;-72
2022/02/03 04:44:54;;;;;;;5.28;1.85;;;;;;;18.19;51.25;101786.16;5012139;28;20516;-72
2022/02/03 05:02:25;;;;;;;4.37;1.70;;;;;;;18.20;51.77;101772.84;5016436;28;20429;-72
2022/02/03 05:05:27;;;;;;;3.78;1.75;;;;;;;18.17;51.46;101767.78;5015346;28;20053;-72
2022/02/03 05:11:21;;;;;;;3.90;1.52;;;;;;;18.19;51.91;101765.88;5015367;28;20026;-72
2022/02/03 05:17:26;;;;;;;4.03;1.20;;;;;;;18.20;51.92;101764.06;5016083;28;20049;-72
2022/02/03 06:01:01;;;;;;;5.50;1.60;;;;;;;18.22;51.15;101710.25;5015196;28;20033;-71
2022/02/03 06:04:46;;;;;;;4.38;1.70;;;;;;;18.23;51.61;101703.19;5013627;28;20049;-71
2022/02/03 06:07:29;;;;;;;4.00;1.65;;;;;;;18.25;51.63;101709.22;5012769;28;20360;-71
2022/02/03 06:15:25;;;;;;;3.83;1.60;;;;;;;18.31;52.42;101687.69;5013950;28;20038;-72
2022/02/03 06:20:41;;;;;;;4.95;1.60;;;;;;;18.33;52.67;101672.59;5015233;28;20029;-71
2022/02/03 06:23:44;;;;;;;5.32;1.60;;;;;;;18.39;53.38;101666.91;5014918;28;20034;-71
2022/02/03 06:29:02;;;;;;;4.95;1.67;;;;;;;18.44;52.96;101674.50;5014616;28;20041;-72
2022/02/03 06:31:28;;;;;;;5.60;1.88;;;;;;;18.46;53.02;101667.31;5015061;28;20467;-71
2022/02/03 06:33:54;;;;;;;4.78;1.90;;;;;;;18.47;53.00;101672.47;5014745;28;20165;-72
2022/02/03 06:36:20;;;;;;;5.63;1.75;;;;;;;18.49;53.10;101665.28;5013666;28;20462;-72
2022/02/03 06:38:45;;;;;;;5.72;1.90;;;;;;;18.52;53.39;101666.00;5014730;28;20034;-71
2022/02/03 06:41:10;;;;;;;6.55;1.70;;;;;;;18.53;53.14;101662.44;5013865;28;20053;-72
2022/02/03 06:43:36;;;;;;;5.22;1.70;;;;;;;18.54;52.52;101658.84;5013539;28;20104;-72
2022/02/03 06:46:06;;;;;;;5.03;1.70;;;;;;;18.57;52.97;101654.19;5014736;28;20021;-71
2022/02/03 06:48:33;;;;;;;4.47;1.42;;;;;;;18.56;53.02;101633.19;5013946;28;20299;-71
2022/02/03 06:51:07;;;;;;;5.35;1.63;;;;;;;18.59;53.14;101633.81;5013346;28;20033;-71
2022/02/03 06:53:37;;;;;;;;;;;;;;;18.59;53.26;101632.97;5014478;28;20041;-71
2022/02/03 06:56:23;;;;;;;5.82;1.60;;;;;;;18.62;52.88;101622.19;5014184;28;19922;-71
2022/02/03 06:58:53;;;;;;;5.53;1.60;;;;;;;18.62;52.91;101624.84;5014316;28;20030;-72
2022/02/03 07:01:27;;;;;;;3.00;1.20;;;;;;;18.64;52.40;101629.06;5014120;28;20030;-73
2022/02/03 07:04:02;;;;;;;4.95;1.50;;;;;;;18.68;53.00;101637.59;5013649;28;20092;-72
2022/02/03 07:06:32;;;;;;;4.68;1.40;;;;;;;18.69;52.95;101641.91;5013600;28;20406;-72
2022/02/03 07:09:08;;;;;;;8.65;1.90;;;;;;;18.70;52.92;101645.41;5014299;28;20045;-72
2022/02/03 07:11:39;;;;;;;4.78;1.70;;;;;;;18.71;53.06;101641.81;5013564;28;20038;-71
2022/02/03 07:14:07;;;;;;;4.50;1.40;;;;;;;18.70;52.41;101650.69;5014868;28;20037;-71
2022/02/03 07:16:42;;;;;;;4.95;1.58;;;;;;;18.72;52.49;101654.06;5015360;28;20030;-72
2022/02/03 07:19:07;;;;;;;4.93;1.60;;;;;;;18.75;52.49;101651.22;5017856;28;20026;-71
2022/02/03 07:21:33;;;;;;;3.90;1.55;;;;;;;18.76;52.66;101661.66;5023702;28;20038;-71
2022/02/03 07:23:58;;;;;;;4.83;1.63;;;;;;;18.78;52.84;101661.56;5022898;28;20048;-70
2022/02/03 07:26:23;;;;;;;5.80;1.83;;;;;;;18.76;51.20;101642.34;5020414;28;20762;-70
2022/02/03 07:28:49;;;;;;;4.40;1.45;;;;;;;18.78;51.98;101648.34;5020468;28;20763;-70
2022/02/03 07:31:14;;;;;;;4.20;1.30;;;;;;;18.80;51.71;101638.50;5020274;28;20022;-68
2022/02/03 07:33:39;;;;;;;5.33;1.47;;;;;;;18.82;51.28;101636.63;5021760;28;20022;-69
2022/02/03 07:36:05;;;;;;;4.88;1.40;;;;;;;18.84;51.33;101611.81;5015669;28;20306;-71
2022/02/03 07:38:30;;;;;;;4.05;1.40;;;;;;;18.87;51.10;101600.19;5013170;28;20029;-71
2022/02/03 07:40:56;;;;;;;4.25;1.60;;;;;;;18.91;51.16;101608.72;5014395;28;20056;-70
2022/02/03 07:43:21;;;;;;;2.67;1.25;;;;;;;18.93;51.27;101607.66;5012801;28;20069;-70
2022/02/03 07:45:47;;;;;;;4.18;1.48;;;;;;;18.94;51.18;101597.94;5012845;28;20474;-70
2022/02/03 07:48:20;;;;;;;3.78;1.73;;;;;;;18.94;51.20;101592.66;5013798;28;20109;-73
2022/02/03 07:50:46;;;;;;;3.80;1.33;;;;;;;18.97;51.10;101600.34;5014023;28;20030;-69
2022/02/03 07:53:11;;;;;;;5.55;1.65;;;;;;;18.98;51.21;101610.81;5012140;28;20131;-69
2022/02/03 07:55:36;;;;;;;4.37;1.50;;;;;;;19.01;51.19;101593.91;5013366;28;20362;-70
2022/02/03 07:58:03;;;;;;;5.57;1.90;;;;;;;19.02;50.81;101590.28;5013348;28;20288;-70
2022/02/03 08:00:28;;;;;;;5.60;1.63;;;;;;;19.03;51.31;101587.53;5012085;28;20054;-71
2022/02/03 08:02:54;;;;;;;5.55;2.05;;;;;;;19.03;50.80;101599.91;5014731;28;20058;-71
2022/02/03 08:05:21;;;;;;;5.43;1.60;;;;;;;19.03;50.97;101598.09;5014009;28;20073;-71
2022/02/03 08:07:50;;;;;;;6.88;1.73;;;;;;;19.02;50.84;101599.03;5012676;28;20621;-73
2022/02/03 08:10:38;;;;;;;5.72;1.77;;;;;;;19.03;51.14;101599.91;5013192;28;20034;-71
2022/02/03 08:13:07;;;;;;;7.22;1.60;;;;;;;19.02;50.95;101595.56;5013662;28;20486;-71
2022/02/03 08:15:35;;;;;;;5.28;1.70;;;;;;;19.03;51.30;101589.34;5013026;28;20041;-70
2022/02/03 08:18:05;;;;;;;5.55;1.48;;;;;;;19.03;51.08;101594.63;5013604;28;20026;-73
2022/02/03 08:20:31;;;;;;;4.20;1.58;;;;;;;19.08;51.63;101594.28;5023753;28;20025;-75
2022/02/03 08:23:26;;;;;;;4.47;1.50;;;;;;;19.16;51.59;101597.22;5014401;28;20030;-76
2022/02/03 08:31:38;;;;;;;4.57;1.60;;;;;;;19.42;50.33;101600.53;5022799;28;20025;-71
2022/02/03 08:34:11;;;;;;;4.40;1.88;;;;;;;19.50;50.14;101600.84;5020368;28;20032;-77
2022/02/03 08:36:39;;;;;;;5.65;1.80;;;;;;;19.55;49.89;101593.41;5020699;28;20054;-74
2022/02/03 08:39:08;;;;;;;5.60;1.70;;;;;;;19.60;49.42;101594.81;5018717;28;20034;-71
2022/02/03 08:41:33;;;;;;;7.80;1.70;;;;;;;19.60;49.13;101594.81;5019475;28;20100;-75
2022/02/03 08:43:59;;;;;;;7.38;1.50;;;;;;;19.62;49.49;101588.47;5020396;28;20026;-75
2022/02/03 08:46:26;;;;;;;5.45;1.70;;;;;;;19.65;49.22;101580.31;5034209;28;20093;-73
2022/02/03 08:48:55;;;;;;;6.22;1.85;;;;;;;19.64;48.14;101568.03;5016421;28;20060;-73
2022/02/03 08:51:21;;;;;;;6.05;1.80;;;;;;;19.65;48.50;101566.25;5018523;28;20463;-72
2022/02/03 08:53:55;;;;;;;8.07;2.00;;;;;;;19.67;48.71;101570.44;5019593;28;20457;-73
2022/02/03 08:59:29;;;;;;;5.75;1.35;;;;;;;19.72;48.96;101562.16;5017594;28;20129;-72
2022/02/03 09:35:39;;;;;;;5.15;1.80;;;;;;;19.65;46.82;101532.72;5015820;28;20033;-69
2022/02/03 09:59:13;;;;;;;5.00;1.60;;;;;;;19.50;49.01;101549.75;5012090;28;20091;-70
2022/02/03 10:02:09;;;;;;;11.27;1.65;;;;;;;19.45;48.51;101551.91;5015050;28;20038;-69
2022/02/03 10:04:43;;;;;;;5.65;1.75;;;;;;;19.39;49.25;101555.84;5014584;28;20482;-69
2022/02/03 10:07:16;;;;;;;6.32;1.77;;;;;;;19.36;49.34;101556.09;5013988;28;20033;-68
2022/02/03 10:09:42;;;;;;;4.93;1.83;;;;;;;19.32;49.03;101547.53;5017127;28;20037;-74
2022/02/03 10:12:09;;;;;;;8.05;1.75;;;;;;;19.30;48.93;101554.75;5016900;28;20046;-74
2022/02/03 10:14:42;;;;;;;6.90;1.83;;;;;;;19.30;49.44;101553.91;5016244;28;20034;-75
2022/02/03 10:17:09;;;;;;;5.07;1.57;;;;;;;19.27;49.36;101540.94;5016002;28;20101;-74
2022/02/03 10:19:40;;;;;;;5.65;1.70;;;;;;;19.26;49.75;101545.34;5016510;28;20271;-74
2022/02/03 10:22:15;;;;;;;4.75;1.58;;;;;;;19.26;49.51;101536.59;5016430;28;20022;-72
2022/02/03 10:24:43;;;;;;;7.47;2.00;;;;;;;19.24;49.61;101534.06;5016181;28;20038;-72
2022/02/03 10:27:29;;;;;;;3.72;1.33;;;;;;;19.23;49.43;101534.16;5015586;28;20084;-74
2022/02/03 10:30:12;;;;;;;5.88;1.70;;;;;;;19.20;48.80;101527.31;5014690;28;20057;-69
2022/02/03 10:32:43;;;;;;;5.07;1.80;;;;;;;19.19;49.45;101518.53;5014390;28;20109;-68
2022/02/03 10:35:16;;;;;;;5.28;1.70;;;;;;;19.18;49.47;101519.53;5013382;28;20533;-70
2022/02/03 10:37:46;;;;;;;5.00;1.60;;;;;;;19.16;49.43;101513.50;5014402;28;20385;-69
2022/02/03 10:40:43;;;;;;;7.00;1.95;;;;;;;19.17;49.67;101506.44;5014075;28;20125;-68
2022/02/03 10:43:38;;;;;;;5.20;1.42;;;;;;;19.17;50.08;101517.00;5013391;28;20042;-70
2022/02/03 10:49:19;;;;;;;6.05;2.10;;;;;;;19.15;49.35;101509.19;5015602;28;20041;-71
2022/02/03 11:00:38;;;;;;;6.55;1.77;;;;;;;19.14;49.73;101493.44;5015359;28;20026;-70
2022/02/03 11:08:23;;;;;;;9.00;2.28;;;;;;;19.21;49.82;101484.91;5015905;28;20030;-74
2022/02/03 11:10:54;;;;;;;5.85;1.80;;;;;;;19.27;49.72;101491.53;5015848;28;20030;-73
2022/02/03 11:13:22;;;;;;;6.38;1.85;;;;;;;19.29;49.51;101486.16;5014626;28;20484;-73
2022/02/03 11:15:49;;;;;;;8.30;2.15;;;;;;;19.27;49.55;101485.44;5015097;28;20042;-74
2022/02/03 11:18:14;;;;;;;6.28;1.73;;;;;;;19.24;49.59;101475.94;5013167;28;20121;-75
2022/02/03 11:20:44;;;;;;;8.43;1.80;;;;;;;19.24;49.40;101475.09;5014012;28;20169;-75
2022/02/03 11:23:31;;;;;;;6.13;2.28;;;;;;;19.20;49.21;101472.69;5013407;28;20473;-73
2022/02/03 11:28:48;;;;;;;4.53;2.05;;;;;;;19.18;50.01;101479.91;5013477;28;20507;-75
2022/02/03 11:34:28;;;;;;;6.00;1.80;;;;;;;19.14;49.39;101469.66;5013954;28;20041;-75
2022/02/03 11:40:13;;;;;;;5.53;1.60;;;;;;;19.12;50.52;101467.13;5018025;28;20037;-75
2022/02/03 11:51:04;;;;;;;6.72;1.90;;;;;;;19.10;50.53;101437.34;5013490;28;20038;-75
2022/02/03 12:02:07;;;;;;;6.45;2.00;;;;;;;19.08;50.55;101417.28;5016681;28;20551;-75
2022/02/03 12:13:16;;;;;;;7.00;1.88;;;;;;;19.04;50.60;101390.25;5013004;28;20120;-75
2022/02/03 12:15:50;;;;;;;7.80;2.45;;;;;;;19.03;44.71;101396.50;5012717;28;20129;-73
2022/02/03 12:19:01;;;;;;;6.03;2.50;;;;;;;18.92;46.44;101394.69;5012740;28;20076;-76
2022/02/03 12:21:40;;;;;;;5.95;1.98;;;;;;;18.87;48.90;101377.47;5011850;28;20038;-69
2022/02/03 12:24:16;;;;;;;5.15;1.70;;;;;;;18.89;47.63;101380.88;5012926;28;20037;-70
2022/02/03 12:26:56;;;;;;;6.60;2.13;;;;;;;18.89;48.85;101379.06;5012445;28;20022;-70
2022/02/03 12:29:38;;;;;;;7.38;2.35;;;;;;;18.92;49.28;101380.63;5012635;28;20117;-70
2022/02/03 12:32:28;;;;;;;6.90;2.17;;;;;;;18.91;49.85;101371.84;5012930;28;20490;-71
2022/02/03 12:38:20;;;;;;;5.70;1.60;;;;;;;18.95;50.58;101367.19;5013089;28;20065;-69
2022/02/03 12:40:57;;;;;;;7.25;1.98;;;;;;;18.98;50.49;101369.63;5012544;28;20029;-68
2022/02/03 12:43:34;;;;;;;5.75;2.00;;;;;;;18.98;50.58;101370.44;5012019;28;20062;-70
2022/02/03 12:46:02;;;;;;;6.68;1.60;;;;;;;18.99;50.13;101363.34;5012840;28;20059;-71
2022/02/03 12:48:31;;;;;;;5.20;1.85;;;;;;;18.97;50.36;101365.28;5011632;28;20038;-70
2022/02/03 12:50:57;;;;;;;7.43;1.85;;;;;;;19.00;50.39;101368.50;5012442;28;20484;-69
2022/02/03 12:53:42;;;;;;;7.10;1.80;;;;;;;19.01;50.83;101369.38;5012117;28;20029;-70
2022/02/03 12:56:09;;;;;;;6.35;1.90;;;;;;;19.01;50.45;101369.38;5011005;28;20486;-71
2022/02/03 12:58:43;;;;;;;5.35;1.88;;;;;;;19.02;50.66;101368.41;5012409;28;20044;-70
2022/02/03 13:01:14;;;;;;;7.13;1.90;;;;;;;19.03;50.65;101363.00;5012128;28;20049;-70
2022/02/03 13:03:45;;;;;;;6.50;2.00;;;;;;;19.02;50.72;101355.19;5011875;28;20036;-69
2022/02/03 13:06:30;;;;;;;8.10;2.00;;;;;;;19.05;50.87;101354.13;5012114;28;20022;-71
2022/02/03 13:09:00;;;;;;;6.38;2.00;;;;;;;19.00;50.86;101341.28;5012285;28;20022;-69
2022/02/03 13:11:40;;;;;;;9.05;2.28;;;;;;;19.05;50.58;101347.03;5011993;28;20104;-68
2022/02/03 13:17:08;;;;;;;5.53;2.00;;;;;;;19.06;50.55;101345.22;5013706;28;20493;-70
2022/02/03 13:22:18;;;;;;;4.00;1.65;;;;;;;19.06;50.62;101337.28;5015900;28;20029;-69
2022/02/03 13:25:17;;;;;;;5.93;1.58;;;;;;;19.06;50.39;101332.88;5015163;28;20085;-69
2022/02/03 13:30:17;;;;;;;5.60;1.73;;;;;;;19.07;50.86;101336.34;5014965;28;20032;-69
2022/02/03 13:32:51;;;;;;;6.13;1.80;;;;;;;19.07;50.77;101333.72;5015729;28;20097;-70
2022/02/03 13:37:55;;;;;;;6.75;1.90;;;;;;;19.05;50.63;101331.19;5014872;28;20022;-70
2022/02/03 13:40:23;;;;;;;7.53;1.88;;;;;;;19.05;50.29;101339.09;5015239;28;20455;-69
2022/02/03 13:42:51;;;;;;;6.05;1.80;;;;;;;19.06;50.33;101334.66;5015361;28;20053;-69
2022/02/03 13:45:20;;;;;;;5.65;1.77;;;;;;;19.05;50.30;101333.81;5014460;28;20113;-68
2022/02/03 13:47:46;;;;;;;6.43;2.10;;;;;;;19.05;48.88;101331.19;5015590;28;20541;-72
2022/02/03 13:50:27;;;;;;;5.93;2.00;;;;;;;19.06;50.00;101332.88;5015429;28;20084;-69
2022/02/03 13:53:07;;;;;;;7.05;1.60;;;;;;;19.05;50.08;101317.16;5015323;28;20462;-70
2022/02/03 14:23:00;;;;;;;6.00;1.80;;;;;;;19.08;50.39;101306.34;5015417;28;20038;-72
2022/02/03 14:28:10;;;;;;;6.05;1.83;;;;;;;19.07;50.34;101305.47;5013098;28;20056;-71
2022/02/03 14:30:44;;;;;;;6.28;1.80;;;;;;;19.07;50.36;101308.13;5014645;28;20541;-71
2022/02/03 14:33:10;;;;;;;4.38;1.55;;;;;;;19.07;50.02;101305.47;5014550;28;20050;-71
2022/02/03 14:35:36;;;;;;;6.57;1.70;;;;;;;19.08;50.60;101308.97;5014191;28;20030;-70
2022/02/03 14:38:16;;;;;;;6.43;1.77;;;;;;;19.08;50.70;101303.69;5014816;28;20041;-71
2022/02/03 14:40:57;;;;;;;4.82;1.63;;;;;;;19.07;51.03;101302.84;5014008;28;20038;-72
2022/02/03 14:43:22;;;;;;;7.90;2.33;;;;;;;19.07;50.57;101294.91;5015196;28;20054;-70
2022/02/03 14:45:48;;;;;;;5.88;1.90;;;;;;;19.08;50.54;101285.22;5014864;28;20018;-71
2022/02/03 14:48:16;;;;;;;3.42;1.30;;;;;;;19.06;50.36;101277.41;5013769;28;20037;-70
2022/02/03 14:50:43;;;;;;;6.57;1.70;;;;;;;19.08;50.46;101277.28;5014304;28;20056;-71
2022/02/03 14:53:28;;;;;;;5.32;1.85;;;;;;;19.08;50.74;101274.63;5014060;28;20042;-72
2022/02/03 14:58:38;;;;;;;5.65;1.88;;;;;;;19.07;50.53;101255.28;5014309;28;20118;-71
2022/02/03 15:01:03;;;;;;;5.25;1.90;;;;;;;19.07;50.56;101251.81;5014009;28;20112;-71
2022/02/03 15:03:29;;;;;;;4.25;1.52;;;;;;;19.07;51.11;101259.75;5013364;28;20026;-72
2022/02/03 15:06:06;;;;;;;4.97;1.50;;;;;;;19.06;50.96;101258.91;5014445;28;20064;-69
2022/02/03 15:16:01;;;;;;;5.65;1.60;;;;;;;19.07;50.81;101250.00;5013730;28;20030;-72
2022/02/03 15:18:32;;;;;;;6.15;1.58;;;;;;;19.06;50.62;101244.84;5014179;28;20045;-72
2022/02/03 15:20:58;;;;;;;5.38;1.50;;;;;;;19.07;50.79;101243.88;5014017;28;20458;-69
2022/02/03 15:23:24;;;;;;;5.40;1.85;;;;;;;19.05;50.73;101251.94;5012785;28;20045;-71
2022/02/03 15:25:50;;;;;;;5.05;1.70;;;;;;;19.06;50.91;101250.97;5014240;28;20179;-71
2022/02/03 15:28:21;;;;;;;5.68;1.48;;;;;;;19.06;50.96;101244.84;5013438;28;20525;-70
2022/02/03 15:30:46;;;;;;;5.13;1.58;;;;;;;19.03;51.20;101240.66;5013898;28;20057;-73
2022/02/03 15:33:12;;;;;;;6.80;2.05;;;;;;;19.07;50.98;101243.88;5016468;28;20053;-72
2022/02/03 15:35:45;;;;;;;5.13;1.65;;;;;;;19.14;51.05;101229.25;5017359;28;20108;-70
2022/02/03 15:38:17;;;;;;;5.90;2.05;;;;;;;19.23;50.99;101232.94;5013005;28;20034;-71
2022/02/03 15:40:43;;;;;;;6.35;2.00;;;;;;;19.29;51.17;101217.44;5016055;28;20386;-76
2022/02/03 15:43:25;;;;;;;8.35;1.85;;;;;;;19.39;51.13;101226.31;5013607;28;20042;-68
2022/02/03 15:45:54;;;;;;;5.05;1.75;;;;;;;19.46;50.66;101221.38;5013143;28;20025;-67
2022/02/03 15:48:38;;;;;;;7.38;1.63;;;;;;;19.54;50.53;101233.97;5018173;28;20026;-76
2022/02/03 15:51:22;;;;;;;4.65;1.73;;;;;;;19.60;50.43;101228.19;5021058;28;20125;-74
2022/02/03 16:01:39;;;;;;;4.57;1.88;;;;;;;19.75;49.97;101229.56;5015719;28;20022;-73
2022/02/03 16:17:22;;;;;;;5.72;2.20;;;;;;;19.69;49.59;101221.28;5012511;28;20030;-68
2022/02/03 16:20:02;;;;;;;4.40;1.60;;;;;;;19.61;49.78;101229.00;5012597;28;20393;-69
2022/02/03 16:22:41;;;;;;;9.13;1.98;;;;;;;19.53;49.37;101227.00;5012673;28;20053;-67
2022/02/03 16:25:34;;;;;;;6.03;1.90;;;;;;;19.47;49.61;101228.34;5012783;28;20080;-70
2022/02/03 16:52:50;;;;;;;10.38;3.75;;;;;;;19.20;51.05;101228.72;5015801;28;20128;-69
2022/02/03 16:55:16;;;;;;;14.40;4.90;;;;;;;19.17;51.28;101227.19;5015215;28;20034;-67
2022/02/03 16:57:46;;;;;;;16.98;6.35;;;;;;;19.16;51.60;101225.50;5016185;28;20097;-69
2022/02/03 17:00:14;;;;;;;14.68;6.95;;;;;;;19.16;51.44;101230.78;5015923;28;20034;-68
2022/02/03 17:02:42;;;;;;;18.65;6.75;;;;;;;19.16;51.47;101236.06;5015840;28;20117;-67
2022/02/03 17:05:09;;;;;;;16.73;6.10;;;;;;;19.17;51.50;101231.66;5016083;28;20029;-68
2022/02/03 17:07:35;;;;;;;15.32;5.25;;;;;;;19.19;51.31;101229.72;5015750;28;20046;-68
2022/02/03 17:10:01;;;;;;;18.05;6.18;;;;;;;19.20;51.56;101226.09;5015889;28;20034;-70
2022/02/03 17:12:26;;;;;;;16.05;5.43;;;;;;;19.22;51.69;101221.53;5015622;28;20032;-69
2022/02/03 17:14:52;;;;;;;15.82;5.80;;;;;;;19.24;51.91;101214.31;5015984;28;20450;-70
2022/02/03 17:17:20;;;;;;;16.77;6.82;;;;;;;19.27;52.11;101221.19;5015223;28;20033;-71
2022/02/03 17:19:49;;;;;;;19.45;7.63;;;;;;;19.28;52.23;101217.56;5015785;28;20470;-72
2022/02/03 17:22:19;;;;;;;20.10;7.47;;;;;;;19.30;52.68;101226.22;5014803;28;20029;-70
2022/02/03 17:25:02;;;;;;;16.75;7.72;;;;;;;19.30;52.47;101223.56;5015731;28;20041;-70
2022/02/03 17:27:56;;;;;;;14.98;7.10;;;;;;;19.30;52.59;101228.88;5015504;28;20038;-71
2022/02/03 17:30:22;;;;;;;18.60;6.88;;;;;;;19.31;52.35;101227.88;5014651;28;20042;-69
2022/02/03 18:08:24;;;;;;;11.80;4.10;;;;;;;19.49;52.23;101236.97;5015265;28;20050;-70
2022/02/03 18:37:52;;;;;;;;;;;;;;;19.64;53.66;101245.47;5015657;28;20050;-73
2022/02/03 18:51:10;;;;;;;9.00;2.97;;;;;;;19.63;53.71;101232.38;5016368;28;20038;-72
2022/02/03 18:53:42;;;;;;;7.90;2.95;;;;;;;19.65;53.60;101225.16;5015028;28;20044;-72
2022/02/03 18:56:33;;;;;;;7.25;3.05;;;;;;;19.65;53.47;101231.28;5014831;28;20045;-71
2022/02/03 18:59:30;;;;;;;7.88;2.90;;;;;;;19.67;53.54;101226.69;5016083;28;20025;-71
2022/02/03 19:23:40;;;;;;;;;;;;;;;19.66;53.95;101213.59;5013827;28;20474;-73
2022/02/03 19:28:42;;;;;;;7.27;2.40;;;;;;;19.67;53.61;101215.28;5013272;28;20038;-69
2022/02/03 20:11:36;;;;;;;5.68;3.08;;;;;;;19.70;53.91;101215.03;5011363;28;20042;-69
2022/02/03 20:14:02;;;;;;;7.72;3.58;;;;;;;19.69;53.71;101211.56;5012244;28;20079;-68
2022/02/03 20:16:28;;;;;;;8.77;2.92;;;;;;;19.69;53.63;101211.56;5011401;28;20041;-68
2022/02/03 20:18:54;;;;;;;6.93;3.35;;;;;;;19.68;53.78;101212.53;5011497;28;20164;-71
2022/02/03 20:21:20;;;;;;;6.40;2.85;;;;;;;19.68;53.71;101211.69;5011604;28;20060;-69
2022/02/03 20:23:46;;;;;;;7.82;3.45;;;;;;;19.66;53.75;101216.25;5011713;28;20038;-71
2022/02/03 20:26:14;;;;;;;8.13;3.15;;;;;;;19.67;54.00;101215.28;5009850;28;20057;-70
2022/02/03 20:28:40;;;;;;;8.13;3.25;;;;;;;19.66;53.85;101217.13;5011929;28;20021;-70
2022/02/03 20:31:05;;;;;;;6.47;2.78;;;;;;;19.68;53.45;101217.81;5011596;28;20022;-70
2022/02/03 20:33:31;;;;;;;9.02;3.65;;;;;;;19.67;53.47;101210.84;5010998;28;20112;-68
2022/02/03 20:36:05;;;;;;;7.80;3.50;;;;;;;19.68;53.09;101209.88;5011708;28;20461;-71
2022/02/03 20:38:31;;;;;;;6.95;3.10;;;;;;;19.68;53.33;101209.06;5011173;28;20038;-69
2022/02/03 20:40:59;;;;;;;7.53;3.17;;;;;;;19.66;53.33;101200.38;5011470;28;20517;-71
2022/02/03 20:43:24;;;;;;;6.63;3.08;;;;;;;19.64;53.27;101212.91;4975580;28;1040719;-69
2022/02/03 20:45:50;;;;;;;6.72;3.15;;;;;;;19.65;53.27;101219.88;5012258;28;20041;-68
2022/02/03 20:48:19;;;;;;;6.07;3.50;;;;;;;19.64;53.32;101220.84;5011869;28;20049;-69
2022/02/03 20:50:47;;;;;;;6.60;3.10;;;;;;;19.63;53.53;101209.44;5012393;28;20120;-70
2022/02/03 20:53:14;;;;;;;5.78;2.75;;;;;;;19.64;53.41;101205.81;5011408;28;20113;-73
2022/02/03 20:55:46;;;;;;;6.22;3.25;;;;;;;19.63;53.41;101205.94;5012371;28;20386;-72
2022/02/03 20:58:16;;;;;;;6.03;3.33;;;;;;;19.64;53.55;101203.16;5012010;28;20044;-72
2022/02/03 21:00:47;;;;;;;6.90;3.50;;;;;;;19.63;53.55;101200.63;5011828;28;20390;-70
2022/02/03 21:03:38;;;;;;;6.45;3.15;;;;;;;19.62;53.37;101213.03;5012163;28;20029;-70
2022/02/03 21:06:02;;;;;;;7.93;3.53;;;;;;;19.63;53.54;101204.13;5011774;28;20109;-71
2022/02/03 21:08:31;;;;;;;8.27;3.70;;;;;;;19.60;53.30;101206.19;5011783;28;20049;-70
2022/02/03 21:10:59;;;;;;;7.45;3.28;;;;;;;19.61;53.52;101210.50;5012488;28;20030;-70
2022/02/03 21:13:25;;;;;;;7.30;3.60;;;;;;;19.59;53.36;101197.41;5011657;28;20030;-67
2022/02/03 21:15:52;;;;;;;5.75;3.15;;;;;;;19.62;53.36;101204.25;5011639;28;20030;-71
2022/02/03 21:18:18;;;;;;;6.10;3.30;;;;;;;19.62;53.59;101201.63;5011918;28;20537;-73
2022/02/03 21:20:45;;;;;;;7.78;4.00;;;;;;;19.61;53.27;101198.13;5011991;28;20120;-72
2022/02/03 21:23:13;;;;;;;5.82;3.20;;;;;;;19.60;53.28;101196.47;5011711;28;20038;-75
2022/02/03 21:25:43;;;;;;;6.35;3.75;;;;;;;19.60;53.56;101191.16;5012446;28;20065;-76
2022/02/03 21:28:15;;;;;;;6.10;3.60;;;;;;;19.60;53.31;101193.81;5011997;28;20093;-72
2022/02/03 21:30:41;;;;;;;7.30;3.80;;;;;;;19.58;53.47;101199.22;5011937;28;20030;-73